Wetterdaten: Woche 05.01.15 - 11.01.15 (KW2)
Datum Zeit Temp. A. Feuchte A. Luftdruck Regen Wind Richtung Taupunkt Windchill Windben
05.01.2015 00:00 1,8 C 77 % 1027,1 hPa 0,0 l/m 11,8 km/h N -1,8 C -2,6 C 31,8 km/h
05.01.2015 01:00 1,3 C 78 % 1027,7 hPa 0,0 l/m 7,0 km/h N -2,1 C 0,3 C 22,9 km/h
05.01.2015 02:00 1,3 C 77 % 1028,3 hPa 0,0 l/m 10,9 km/h N -2,3 C -2,7 C 31,0 km/h
05.01.2015 03:00 1,6 C 75 % 1028,5 hPa 0,0 l/m 12,1 km/h N -2,3 C -3,2 C 31,0 km/h
05.01.2015 04:00 1,6 C 73 % 1028,4 hPa 0,0 l/m 9,4 km/h N -2,8 C -1,1 C 27,3 km/h
05.01.2015 05:00 1,8 C 73 % 1028,2 hPa 0,0 l/m 8,9 km/h N -2,5 C -0,5 C 24,5 km/h
05.01.2015 06:00 2,0 C 75 % 1028,1 hPa 0,0 l/m 9,9 km/h N -2,0 C -1,2 C 27,0 km/h
05.01.2015 07:00 2,3 C 76 % 1027,9 hPa 0,0 l/m 12,2 km/h N -1,6 C -2,5 C 29,8 km/h
05.01.2015 08:00 2,7 C 77 % 1027,6 hPa 0,0 l/m 15,1 km/h N -1,0 C -3,8 C 37,0 km/h
05.01.2015 09:00 2,2 C 83 % 1027,2 hPa 0,8 l/m 11,6 km/h N -0,5 C -2,2 C 29,8 km/h
05.01.2015 10:00 2,6 C 82 % 1026,6 hPa 0,3 l/m 14,0 km/h N -0,1 C -3,2 C 31,8 km/h
05.01.2015 11:00 2,8 C 81 % 1026,3 hPa 0,0 l/m 13,9 km/h N -0,2 C -3,0 C 36,6 km/h
05.01.2015 12:00 2,3 C 82 % 1025,2 hPa 0,5 l/m 14,9 km/h N -0,4 C -4,0 C 36,6 km/h
05.01.2015 13:00 1,9 C 83 % 1024,2 hPa 0,8 l/m 17,6 km/h N -0,7 C -6,1 C 45,8 km/h
05.01.2015 14:00 1,5 C 84 % 1024,0 hPa 0,8 l/m 20,0 km/h N -0,9 C -7,7 C 46,7 km/h
05.01.2015 15:00 1,6 C 84 % 1023,9 hPa 0,8 l/m 18,5 km/h N -0,8 C -6,8 C 45,9 km/h
05.01.2015 16:00 1,5 C 85 % 1024,3 hPa 0,8 l/m 16,9 km/h N -0,8 C -6,1 C 41,0 km/h
05.01.2015 17:00 1,5 C 85 % 1024,8 hPa 0,5 l/m 15,9 km/h N -0,7 C -5,6 C 39,8 km/h
05.01.2015 18:00 1,3 C 85 % 1025,2 hPa 0,8 l/m 13,4 km/h N -0,9 C -4,4 C 38,2 km/h
05.01.2015 19:00 1,3 C 86 % 1025,4 hPa 0,8 l/m 12,4 km/h N -0,8 C -3,8 C 29,4 km/h
05.01.2015 20:00 1,2 C 86 % 1025,6 hPa 1,3 l/m 12,4 km/h N -0,9 C -3,9 C 29,8 km/h
05.01.2015 21:00 1,3 C 86 % 1025,6 hPa 0,5 l/m 15,2 km/h N -0,8 C -5,5 C 33,0 km/h
05.01.2015 22:00 1,3 C 86 % 1025,9 hPa 0,8 l/m 12,4 km/h N -0,8 C -3,7 C 30,2 km/h
05.01.2015 23:00 1,4 C 86 % 1026,2 hPa 0,3 l/m 10,2 km/h N -0,7 C -2,1 C 27,8 km/h
06.01.2015 00:00 1,5 C 86 % 1026,3 hPa 0,0 l/m 13,1 km/h N -0,6 C -4,0 C 29,0 km/h
06.01.2015 01:00 1,7 C 85 % 1026,4 hPa 0,0 l/m 10,4 km/h N -0,6 C -2,0 C 28,6 km/h
06.01.2015 02:00 1,7 C 84 % 1026,6 hPa 0,0 l/m 10,2 km/h N -0,7 C -1,7 C 26,6 km/h
06.01.2015 03:00 1,7 C 84 % 1026,7 hPa 0,0 l/m 9,3 km/h N -0,8 C -1,0 C 23,7 km/h
06.01.2015 04:00 1,6 C 84 % 1026,9 hPa 0,0 l/m 6,5 km/h N -0,8 C 1,2 C 18,9 km/h
06.01.2015 05:00 1,6 C 84 % 1027,1 hPa 0,0 l/m 6,7 km/h N -0,9 C 1,1 C 18,9 km/h
06.01.2015 06:00 1,3 C 84 % 1027,2 hPa 0,0 l/m 6,5 km/h N -1,1 C 0,5 C 16,1 km/h
06.01.2015 07:00 0,7 C 84 % 1027,6 hPa 0,0 l/m 1,7 km/h N -1,7 C 0,7 C 6,4 km/h
06.01.2015 08:00 0,5 C 85 % 1027,9 hPa 0,0 l/m 3,5 km/h N -1,7 C 0,5 C 9,3 km/h
06.01.2015 09:00 1,2 C 84 % 1028,1 hPa 0,0 l/m 3,5 km/h N -1,1 C 1,2 C 9,7 km/h
06.01.2015 10:00 2,0 C 82 % 1028,5 hPa 0,0 l/m 4,2 km/h N -0,8 C 2,0 C 13,7 km/h
06.01.2015 11:00 2,5 C 77 % 1028,3 hPa 0,0 l/m 6,4 km/h N -1,1 C 2,3 C 17,3 km/h
06.01.2015 12:00 3,0 C 73 % 1027,8 hPa 0,0 l/m 5,4 km/h N -1,3 C 3,0 C 13,3 km/h
06.01.2015 13:00 2,9 C 70 % 1027,4 hPa 0,0 l/m 5,6 km/h N -1,9 C 2,9 C 14,1 km/h
06.01.2015 14:00 3,0 C 70 % 1027,4 hPa 0,0 l/m 5,8 km/h N -2,0 C 2,8 C 14,5 km/h
06.01.2015 15:00 2,5 C 70 % 1027,7 hPa 0,0 l/m 3,5 km/h N -2,5 C 2,5 C 13,3 km/h
06.01.2015 16:00 1,3 C 73 % 1028,3 hPa 0,0 l/m 0,7 km/h N -3,1 C 1,3 C 3,6 km/h
06.01.2015 17:00 -0,7 C 76 % 1028,8 hPa 0,0 l/m 0,0 km/h N -4,5 C -0,7 C 0,4 km/h
06.01.2015 18:00 -2,1 C 81 % 1029,3 hPa 0,0 l/m 0,1 km/h N -4,9 C -2,1 C 1,6 km/h
06.01.2015 19:00 -2,9 C 83 % 1030,0 hPa 0,0 l/m 0,0 km/h N -5,3 C -2,9 C 0,4 km/h
06.01.2015 20:00 -3,5 C 85 % 1030,2 hPa 0,0 l/m 0,0 km/h N -5,7 C -3,5 C 0,0 km/h
06.01.2015 21:00 -3,8 C 85 % 1030,5 hPa 0,0 l/m 0,2 km/h N -5,9 C -3,8 C 2,0 km/h
06.01.2015 22:00 -4,4 C 85 % 1030,6 hPa 0,0 l/m 0,0 km/h N -6,5 C -4,4 C 0,0 km/h
06.01.2015 23:00 -4,8 C 86 % 1030,5 hPa 0,0 l/m 0,0 km/h N -6,8 C -4,8 C 0,8 km/h
07.01.2015 00:00 -4,9 C 86 % 1030,3 hPa 0,0 l/m 0,0 km/h N -6,9 C -4,9 C 0,0 km/h
07.01.2015 01:00 -5,3 C 86 % 1030,3 hPa 0,0 l/m 0,0 km/h N -7,2 C -5,3 C 0,0 km/h
07.01.2015 02:00 -5,2 C 86 % 1030,3 hPa 0,0 l/m 0,0 km/h N -7,1 C -5,2 C 0,4 km/h
07.01.2015 03:00 -4,4 C 86 % 1030,8 hPa 0,0 l/m 0,1 km/h N -6,4 C -4,4 C 1,6 km/h
07.01.2015 04:00 -4,2 C 85 % 1030,9 hPa 0,0 l/m 1,9 km/h N -6,3 C -4,2 C 7,6 km/h
07.01.2015 05:00 -4,2 C 80 % 1030,7 hPa 0,0 l/m 0,9 km/h N -7,1 C -4,2 C 5,2 km/h
07.01.2015 06:00 -4,3 C 80 % 1031,0 hPa 0,0 l/m 0,0 km/h N -7,3 C -4,3 C 0,8 km/h
07.01.2015 07:00 -3,8 C 81 % 1031,3 hPa 0,0 l/m 0,3 km/h N -6,6 C -3,8 C 3,6 km/h
07.01.2015 08:00 -3,5 C 83 % 1031,5 hPa 0,0 l/m 1,1 km/h N -6,0 C -3,5 C 5,6 km/h
07.01.2015 09:00 -3,0 C 82 % 1031,7 hPa 0,0 l/m 0,6 km/h N -5,6 C -3,0 C 4,8 km/h
07.01.2015 10:00 -2,5 C 81 % 1032,0 hPa 0,0 l/m 1,5 km/h N -5,3 C -2,5 C 6,8 km/h
07.01.2015 11:00 -1,8 C 81 % 1031,9 hPa 0,0 l/m 2,0 km/h N -4,7 C -1,8 C 10,9 km/h
07.01.2015 12:00 -1,5 C 80 % 1031,4 hPa 0,0 l/m 2,3 km/h N -4,6 C -1,5 C 7,6 km/h
07.01.2015 13:00 -1,4 C 79 % 1031,3 hPa 0,0 l/m 2,3 km/h N -4,5 C -1,4 C 9,3 km/h
07.01.2015 14:00 -1,7 C 80 % 1031,6 hPa 0,0 l/m 2,3 km/h N -4,7 C -1,7 C 8,4 km/h
07.01.2015 15:00 -2,2 C 84 % 1031,9 hPa 0,0 l/m 1,0 km/h N -4,6 C -2,2 C 5,6 km/h
07.01.2015 16:00 -2,7 C 86 % 1032,3 hPa 0,0 l/m 1,3 km/h N -4,7 C -2,7 C 6,4 km/h
07.01.2015 17:00 -2,9 C 86 % 1032,6 hPa 0,0 l/m 1,0 km/h N -4,9 C -2,9 C 5,6 km/h
07.01.2015 18:00 -2,9 C 86 % 1032,8 hPa 0,0 l/m 0,6 km/h N -4,9 C -2,9 C 3,6 km/h
07.01.2015 19:00 -3,0 C 86 % 1033,1 hPa 0,0 l/m 1,2 km/h N -5,0 C -3,0 C 6,0 km/h
07.01.2015 20:00 -2,9 C 86 % 1033,4 hPa 0,0 l/m 0,5 km/h N -4,9 C -2,9 C 4,4 km/h
07.01.2015 21:00 -2,9 C 86 % 1033,3 hPa 0,0 l/m 0,1 km/h N -4,9 C -2,9 C 2,0 km/h
07.01.2015 22:00 -2,9 C 86 % 1033,5 hPa 0,0 l/m 0,1 km/h N -4,9 C -2,9 C 1,6 km/h
07.01.2015 23:00 -2,7 C 86 % 1033,4 hPa 0,0 l/m 0,6 km/h N -4,7 C -2,7 C 4,4 km/h
08.01.2015 00:00 -2,8 C 86 % 1033,5 hPa 0,0 l/m 1,0 km/h N -4,8 C -2,8 C 5,2 km/h
08.01.2015 01:00 -3,3 C 86 % 1033,4 hPa 0,0 l/m 0,6 km/h N -5,2 C -3,3 C 5,2 km/h
08.01.2015 02:00 -3,6 C 86 % 1033,4 hPa 0,0 l/m 0,5 km/h N -5,6 C -3,6 C 4,4 km/h
08.01.2015 03:00 -3,6 C 86 % 1033,4 hPa 0,0 l/m 0,9 km/h N -5,6 C -3,6 C 4,8 km/h
08.01.2015 04:00 -3,8 C 86 % 1033,3 hPa 0,0 l/m 0,5 km/h N -5,8 C -3,8 C 4,0 km/h
08.01.2015 05:00 -4,6 C 86 % 1033,3 hPa 0,0 l/m 0,0 km/h N -6,6 C -4,6 C 1,2 km/h
08.01.2015 06:00 -4,7 C 86 % 1033,2 hPa 0,0 l/m 0,2 km/h N -6,6 C -4,7 C 2,8 km/h
08.01.2015 07:00 -4,7 C 86 % 1033,7 hPa 0,0 l/m 0,1 km/h N -6,6 C -4,7 C 2,8 km/h
08.01.2015 08:00 -4,1 C 86 % 1033,8 hPa 0,0 l/m 1,5 km/h N -6,1 C -4,1 C 6,0 km/h
08.01.2015 09:00 -3,2 C 86 % 1033,4 hPa 0,0 l/m 2,0 km/h N -5,2 C -3,2 C 8,0 km/h
08.01.2015 10:00 -2,4 C 86 % 1033,3 hPa 0,0 l/m 2,4 km/h N -4,5 C -2,4 C 7,6 km/h
08.01.2015 11:00 -2,0 C 85 % 1033,2 hPa 0,0 l/m 1,8 km/h N -4,2 C -2,0 C 6,8 km/h
08.01.2015 12:00 -1,8 C 84 % 1032,3 hPa 0,0 l/m 1,5 km/h N -4,1 C -1,8 C 6,8 km/h
08.01.2015 13:00 -1,7 C 85 % 1031,7 hPa 0,0 l/m 3,1 km/h N -3,9 C -1,7 C 9,7 km/h
08.01.2015 14:00 -1,6 C 86 % 1031,4 hPa 0,0 l/m 2,7 km/h N -3,7 C -1,6 C 12,9 km/h
08.01.2015 15:00 -1,7 C 86 % 1031,3 hPa 0,0 l/m 3,2 km/h N -3,7 C -1,7 C 11,7 km/h
08.01.2015 16:00 -1,6 C 86 % 1031,1 hPa 0,0 l/m 2,0 km/h N -3,6 C -1,6 C 8,9 km/h
08.01.2015 17:00 -1,4 C 86 % 1030,8 hPa 0,0 l/m 2,0 km/h N -3,4 C -1,4 C 8,4 km/h
08.01.2015 18:00 -1,4 C 86 % 1030,3 hPa 0,0 l/m 1,2 km/h N -3,4 C -1,4 C 5,6 km/h
08.01.2015 19:00 -1,0 C 86 % 1030,0 hPa 0,0 l/m 1,0 km/h N -3,0 C -1,0 C 6,8 km/h
08.01.2015 20:00 -0,7 C 86 % 1029,1 hPa 0,0 l/m 1,5 km/h N -2,7 C -0,7 C 7,6 km/h
08.01.2015 21:00 -0,5 C 86 % 1028,7 hPa 0,0 l/m 1,4 km/h N -2,5 C -0,5 C 6,4 km/h
08.01.2015 22:00 -0,5 C 86 % 1027,9 hPa 0,0 l/m 1,8 km/h N -2,5 C -0,5 C 8,4 km/h
08.01.2015 23:00 -0,1 C 86 % 1027,6 hPa 0,0 l/m 1,4 km/h N -2,2 C -0,1 C 6,8 km/h
09.01.2015 00:00 1,8 C 86 % 1026,8 hPa 0,3 l/m 4,0 km/h N -0,3 C 1,2 C 18,1 km/h
09.01.2015 01:00 8,4 C 76 % 1025,6 hPa 2,9 l/m 12,0 km/h N 4,4 C 4,7 C 37,8 km/h
09.01.2015 02:00 8,9 C 71 % 1026,0 hPa 0,0 l/m 15,7 km/h N 3,9 C 3,5 C 46,3 km/h
09.01.2015 03:00 8,4 C 71 % 1027,3 hPa 0,0 l/m 15,1 km/h N 3,5 C 3,3 C 40,6 km/h
09.01.2015 04:00 7,3 C 74 % 1028,1 hPa 0,0 l/m 7,5 km/h N 3,0 C 6,3 C 25,7 km/h
09.01.2015 05:00 6,9 C 73 % 1028,6 hPa 0,0 l/m 5,9 km/h N 2,4 C 6,7 C 20,9 km/h
09.01.2015 06:00 6,8 C 74 % 1028,9 hPa 0,0 l/m 6,5 km/h N 2,4 C 6,3 C 19,3 km/h
09.01.2015 07:00 6,5 C 74 % 1028,7 hPa 0,0 l/m 7,2 km/h N 2,3 C 5,6 C 25,0 km/h
09.01.2015 08:00 6,9 C 72 % 1028,0 hPa 0,0 l/m 11,3 km/h N 2,1 C 3,4 C 35,0 km/h
09.01.2015 09:00 7,4 C 69 % 1026,9 hPa 0,0 l/m 4,8 km/h N 2,1 C 7,4 C 19,3 km/h
09.01.2015 10:00 9,1 C 66 % 1025,5 hPa 0,0 l/m 11,9 km/h N 3,1 C 5,8 C 28,2 km/h
09.01.2015 11:00 9,1 C 66 % 1024,7 hPa 0,0 l/m 9,0 km/h N 3,0 C 7,2 C 27,8 km/h
09.01.2015 12:00 9,4 C 65 % 1022,6 hPa 0,0 l/m 6,7 km/h N 3,0 C 8,5 C 23,7 km/h
09.01.2015 13:00 9,9 C 63 % 1020,6 hPa 0,0 l/m 2,3 km/h N 3,1 C 9,9 C 9,2 km/h
09.01.2015 14:00 10,1 C 61 % 1018,3 hPa 0,0 l/m 2,1 km/h N 2,9 C 10,1 C 12,1 km/h
09.01.2015 15:00 11,6 C 50 % 1016,2 hPa 0,0 l/m 13,1 km/h N 1,5 C 8,0 C 35,0 km/h
09.01.2015 16:00 12,2 C 48 % 1016,5 hPa 0,0 l/m 21,4 km/h N 1,5 C 5,7 C 56,7 km/h
09.01.2015 17:00 11,0 C 56 % 1016,2 hPa 0,0 l/m 14,4 km/h N 2,5 C 6,7 C 41,4 km/h
09.01.2015 18:00 10,2 C 66 % 1015,3 hPa 0,0 l/m 11,2 km/h N 4,0 C 7,2 C 36,2 km/h
09.01.2015 19:00 10,3 C 69 % 1015,3 hPa 0,0 l/m 18,3 km/h N 4,8 C 4,2 C 45,9 km/h
09.01.2015 20:00 10,2 C 71 % 1014,7 hPa 0,0 l/m 20,5 km/h N 5,2 C 3,4 C 49,5 km/h
09.01.2015 21:00 10,1 C 73 % 1013,3 hPa 0,0 l/m 21,2 km/h N 5,4 C 3,0 C 51,9 km/h
09.01.2015 22:00 10,6 C 70 % 1013,0 hPa 0,0 l/m 24,2 km/h N 5,4 C 2,8 C 53,9 km/h
09.01.2015 23:00 9,5 C 77 % 1012,7 hPa 0,5 l/m 17,4 km/h N 5,7 C 3,7 C 47,5 km/h
10.01.2015 00:00 9,9 C 76 % 1011,5 hPa 0,0 l/m 20,7 km/h N 5,9 C 2,9 C 47,1 km/h
10.01.2015 01:00 11,0 C 73 % 1010,3 hPa 0,3 l/m 24,9 km/h N 6,4 C 3,2 C 61,9 km/h
10.01.2015 02:00 10,9 C 76 % 1010,4 hPa 0,3 l/m 20,6 km/h N 6,9 C 4,3 C 43,5 km/h
10.01.2015 03:00 11,1 C 79 % 1009,5 hPa 0,5 l/m 19,4 km/h N 7,6 C 4,9 C 47,5 km/h
10.01.2015 04:00 11,4 C 81 % 1009,3 hPa 1,8 l/m 17,1 km/h N 8,2 C 6,1 C 45,0 km/h
10.01.2015 05:00 11,5 C 83 % 1009,2 hPa 2,3 l/m 17,8 km/h N 8,7 C 5,9 C 39,0 km/h
10.01.2015 06:00 12,4 C 83 % 1009,5 hPa 1,8 l/m 20,9 km/h N 9,5 C 6,1 C 47,1 km/h
10.01.2015 07:00 13,1 C 81 % 1009,8 hPa 0,5 l/m 20,8 km/h N 10,0 C 7,1 C 48,7 km/h
10.01.2015 08:00 13,9 C 78 % 1009,0 hPa 0,3 l/m 25,0 km/h N 10,1 C 7,1 C 58,3 km/h
10.01.2015 09:00 14,8 C 74 % 1008,9 hPa 0,0 l/m 26,7 km/h N 10,2 C 8,0 C 67,2 km/h
10.01.2015 10:00 15,5 C 72 % 1009,3 hPa 0,0 l/m 26,6 km/h N 10,4 C 8,9 C 63,6 km/h
10.01.2015 11:00 16,2 C 69 % 1008,9 hPa 0,0 l/m 25,0 km/h N 10,5 C 10,2 C 56,7 km/h
10.01.2015 12:00 17,5 C 62 % 1007,3 hPa 0,0 l/m 27,3 km/h N 10,1 C 11,7 C 59,5 km/h
10.01.2015 13:00 17,6 C 57 % 1005,5 hPa 0,0 l/m 31,0 km/h N 9,0 C 11,2 C 70,0 km/h
10.01.2015 14:00 17,4 C 57 % 1005,3 hPa 0,0 l/m 28,6 km/h N 8,7 C 11,3 C 65,6 km/h
10.01.2015 15:00 17,5 C 57 % 1006,5 hPa 0,0 l/m 21,5 km/h N 8,9 C 12,6 C 58,3 km/h
10.01.2015 16:00 17,2 C 58 % 1006,8 hPa 0,0 l/m 18,3 km/h N 8,8 C 13,0 C 45,9 km/h
10.01.2015 17:00 17,2 C 56 % 1007,3 hPa 0,0 l/m 19,0 km/h N 8,4 C 12,8 C 50,7 km/h
10.01.2015 18:00 17,2 C 53 % 1008,0 hPa 0,0 l/m 17,8 km/h N 7,4 C 13,1 C 43,0 km/h
10.01.2015 19:00 16,8 C 56 % 1007,9 hPa 0,0 l/m 16,7 km/h N 7,9 C 12,8 C 42,6 km/h
10.01.2015 20:00 16,4 C 57 % 1007,4 hPa 0,0 l/m 17,9 km/h N 7,8 C 12,2 C 49,9 km/h
10.01.2015 21:00 16,8 C 56 % 1007,4 hPa 0,0 l/m 19,8 km/h N 7,8 C 12,1 C 52,7 km/h
10.01.2015 22:00 16,7 C 55 % 1007,0 hPa 0,0 l/m 19,5 km/h N 7,5 C 12,1 C 50,3 km/h
10.01.2015 23:00 16,1 C 56 % 1007,9 hPa 0,0 l/m 19,8 km/h N 7,3 C 11,3 C 53,5 km/h
11.01.2015 00:00 15,6 C 56 % 1008,1 hPa 0,0 l/m 17,6 km/h N 6,9 C 11,1 C 42,3 km/h
11.01.2015 01:00 15,1 C 57 % 1008,9 hPa 0,0 l/m 14,6 km/h N 6,7 C 11,5 C 37,0 km/h
11.01.2015 02:00 9,6 C 75 % 1010,8 hPa 0,0 l/m 11,8 km/h N 5,4 C 6,3 C 31,0 km/h
11.01.2015 03:00 7,9 C 78 % 1010,7 hPa 0,0 l/m 9,8 km/h N 4,3 C 5,5 C 24,9 km/h
11.01.2015 04:00 7,0 C 83 % 1011,1 hPa 0,3 l/m 3,6 km/h N 4,3 C 7,0 C 12,1 km/h
11.01.2015 05:00 6,7 C 85 % 1010,8 hPa 0,8 l/m 0,3 km/h N 4,3 C 6,7 C 2,8 km/h
11.01.2015 06:00 6,4 C 85 % 1010,8 hPa 2,3 l/m 1,2 km/h N 4,0 C 6,4 C 6,0 km/h
11.01.2015 07:00 6,1 C 85 % 1010,9 hPa 1,6 l/m 2,1 km/h N 3,8 C 6,1 C 10,5 km/h
11.01.2015 08:00 5,8 C 85 % 1011,5 hPa 0,8 l/m 3,1 km/h N 3,5 C 5,8 C 11,6 km/h
11.01.2015 09:00 5,3 C 86 % 1011,8 hPa 0,8 l/m 6,2 km/h N 3,0 C 5,0 C 21,7 km/h
11.01.2015 10:00 5,3 C 85 % 1011,7 hPa 0,8 l/m 11,7 km/h N 2,9 C 1,5 C 28,5 km/h
11.01.2015 11:00 5,1 C 82 % 1011,6 hPa 0,3 l/m 16,1 km/h N 2,4 C -1,3 C 39,8 km/h
11.01.2015 12:00 4,7 C 75 % 1012,4 hPa 0,0 l/m 18,1 km/h N 0,6 C -2,8 C 44,3 km/h
11.01.2015 13:00 4,3 C 75 % 1013,6 hPa 0,0 l/m 16,0 km/h N 0,2 C -2,3 C 39,4 km/h
11.01.2015 14:00 3,8 C 78 % 1014,2 hPa 0,0 l/m 16,0 km/h N 0,3 C -2,8 C 39,8 km/h
11.01.2015 15:00 3,2 C 81 % 1014,6 hPa 0,5 l/m 13,2 km/h N 0,3 C -1,8 C 39,0 km/h
11.01.2015 16:00 3,9 C 73 % 1014,4 hPa 0,0 l/m 12,1 km/h N -0,5 C -0,3 C 33,0 km/h
11.01.2015 17:00 4,2 C 68 % 1014,5 hPa 0,0 l/m 14,9 km/h N -1,1 C -1,7 C 38,6 km/h
11.01.2015 18:00 3,9 C 71 % 1015,5 hPa 0,0 l/m 12,6 km/h N -0,9 C -0,8 C 34,2 km/h
11.01.2015 19:00 3,7 C 72 % 1016,3 hPa 0,0 l/m 14,9 km/h N -0,9 C -2,5 C 39,8 km/h
11.01.2015 20:00 3,0 C 78 % 1018,1 hPa 0,5 l/m 13,1 km/h N -0,5 C -1,9 C 32,2 km/h
11.01.2015 21:00 3,5 C 72 % 1018,9 hPa 0,0 l/m 12,8 km/h N -1,1 C -1,5 C 36,2 km/h
11.01.2015 22:00 3,6 C 71 % 1019,6 hPa 0,0 l/m 10,0 km/h N -1,1 C 0,7 C 31,8 km/h
11.01.2015 23:00 3,9 C 71 % 1019,8 hPa 0,0 l/m 12,6 km/h N -1,0 C -0,8 C 37,4 km/h
Min-Datum _ 07.01.15 09.01.15 10.01.15 - 06.01.15 - 07.01.15 05.01.15 06.01.15
_ Min-Zeit 01:30 15:30 14:00 - 16:45 - 05:45 14:30 16:45
Minimum _ -5,3 C 45 % 1005,1 hPa - 0,0 km/h - -7,4 C -8,0 C 0,0 km/h
Max-Datum _ 10.01.15 05.01.15 08.01.15 09.01.15 10.01.15 - 10.01.15 10.01.15 10.01.15
_ Max-Zeit 12:45 19:00 07:45 01:15 13:30 - 10:45 18:15 14:45
Maximum _ 17,9 C 86 % 1033,8 hPa 2,9 l/m 33,0 km/h
N
- 10,6 C 13,7 C 77,2 km/h
N
Durchschnitt _ 3,7 C 77 % 1023,1 hPa #29,6 l/m 9,2 km/h N -0,0 C 1,1 C 24,7 km/h